Time;durP1;ratioP1;P1;durP2;ratioP2;P2;SDS_P1;SDS_P2;PMS_P1;PMS_P2;Temp;Humidity;BMP_temperature;BMP_pressure;BME280_temperature;BME280_humidity;BME280_pressure;Samples;Min_cycle;Max_cycle;Signal;HPM_P1;HPM_P2
2021/05/12 00:01:39;;;;;;;5.23;4.70;;;14.70;52.40;;;;;;5004163;28;20225;-83
2021/05/12 00:04:07;;;;;;;4.60;4.00;;;14.90;52.10;;;;;;4999524;28;20203;-82
2021/05/12 00:06:37;;;;;;;6.63;4.13;;;15.00;51.20;;;;;;5009304;28;20337;-82
2021/05/12 00:09:05;;;;;;;7.57;4.23;;;15.10;50.80;;;;;;5007366;28;20215;-85
2021/05/12 00:11:33;;;;;;;5.80;3.73;;;15.20;50.90;;;;;;5004012;28;20674;-83
2021/05/12 00:14:02;;;;;;;7.33;3.87;;;15.20;50.20;;;;;;5015304;28;20227;-82
2021/05/12 00:16:30;;;;;;;5.23;3.73;;;15.30;50.60;;;;;;5011864;28;20515;-82
2021/05/12 00:18:58;;;;;;;6.27;3.80;;;15.30;50.40;;;;;;5013792;28;20716;-84
2021/05/12 00:21:30;;;;;;;3.93;3.40;;;15.20;50.80;;;;;;4998417;28;20204;-84
2021/05/12 00:24:00;;;;;;;5.37;3.53;;;15.20;50.40;;;;;;5003275;28;20191;-82
2021/05/12 00:26:36;;;;;;;5.33;3.67;;;15.30;50.00;;;;;;5001036;28;20198;-84
2021/05/12 00:29:04;;;;;;;7.47;3.63;;;15.30;50.20;;;;;;5007407;28;20280;-86
2021/05/12 00:31:35;;;;;;;6.37;3.43;;;15.30;50.00;;;;;;4988360;28;20881;-82
2021/05/12 00:34:04;;;;;;;5.70;3.60;;;15.10;52.80;;;;;;5007693;28;20974;-80
2021/05/12 00:36:33;;;;;;;4.60;3.53;;;14.90;50.70;;;;;;5013371;28;20210;-81
2021/05/12 00:39:04;;;;;;;5.07;4.20;;;15.00;50.90;;;;;;5013511;28;20477;-85
2021/05/12 00:41:36;;;;;;;6.07;3.50;;;14.90;51.80;;;;;;5017671;28;20227;-82
2021/05/12 00:44:05;;;;;;;5.30;3.83;;;14.70;53.60;;;;;;5014449;28;20211;-81
2021/05/12 00:46:34;;;;;;;5.40;3.83;;;14.50;52.40;;;;;;5009039;28;20556;-85
2021/05/12 00:49:05;;;;;;;4.73;3.67;;;14.40;53.70;;;;;;5018957;28;20223;-83
2021/05/12 00:51:33;;;;;;;5.40;3.43;;;14.50;52.60;;;;;;5010153;28;20211;-83
2021/05/12 00:54:02;;;;;;;4.27;3.70;;;14.70;51.90;;;;;;5006526;28;20653;-84
2021/05/12 00:56:31;;;;;;;5.87;3.30;;;14.90;52.00;;;;;;5004007;28;20211;-84
2021/05/12 00:59:01;;;;;;;4.27;3.50;;;14.80;51.40;;;;;;5002100;28;20246;-83
2021/05/12 01:01:29;;;;;;;4.67;3.40;;;14.90;50.80;;;;;;5000444;28;20199;-84
2021/05/12 01:03:58;;;;;;;5.10;3.23;;;14.90;52.10;;;;;;5014511;28;20218;-83
2021/05/12 01:06:28;;;;;;;5.00;3.40;;;14.80;51.20;;;;;;5014280;28;20790;-82
2021/05/12 01:08:56;;;;;;;7.50;3.37;;;14.70;53.10;;;;;;5015198;28;20214;-81
2021/05/12 01:11:27;;;;;;;7.27;3.60;;;14.80;51.10;;;;;;5017873;28;20306;-81
2021/05/12 01:13:56;;;;;;;5.20;3.13;;;14.50;54.30;;;;;;5025458;28;20242;-78
2021/05/12 01:16:24;;;;;;;3.40;3.10;;;14.40;52.80;;;;;;5033435;28;20200;-82
2021/05/12 01:18:52;;;;;;;6.00;3.17;;;14.50;51.50;;;;;;5014329;28;20223;-85
2021/05/12 01:21:21;;;;;;;3.50;3.20;;;14.70;51.50;;;;;;5021477;28;20417;-83
2021/05/12 01:23:50;;;;;;;5.17;3.90;;;14.70;51.20;;;;;;5011005;28;20481;-84
2021/05/12 01:26:21;;;;;;;5.83;3.50;;;14.60;52.60;;;;;;5004083;28;20395;-86
2021/05/12 01:28:51;;;;;;;9.40;4.37;;;14.50;54.40;;;;;;5010417;28;20406;-85
2021/05/12 01:31:22;;;;;;;7.80;4.57;;;14.00;55.30;;;;;;5026770;28;20987;-83
2021/05/12 01:33:51;;;;;;;4.87;4.37;;;13.70;58.00;;;;;;5007448;28;20234;-84
2021/05/12 01:36:21;;;;;;;6.93;4.33;;;13.50;58.70;;;;;;5037668;28;20233;-82
2021/05/12 01:38:50;;;;;;;7.40;4.10;;;13.40;57.90;;;;;;5031027;28;20952;-82
2021/05/12 01:41:19;;;;;;;8.87;4.00;;;13.30;59.30;;;;;;5026542;28;20310;-81
2021/05/12 01:43:47;;;;;;;7.73;3.87;;;13.20;57.90;;;;;;5027869;28;20225;-80
2021/05/12 01:46:15;;;;;;;4.37;3.47;;;13.20;60.20;;;;;;5003574;28;20206;-81
2021/05/12 01:48:44;;;;;;;6.43;3.53;;;13.20;60.50;;;;;;5006048;28;20271;-80
2021/05/12 01:51:13;;;;;;;5.70;3.50;;;13.10;60.60;;;;;;5024120;28;20195;-81
2021/05/12 01:53:42;;;;;;;5.20;3.70;;;13.10;60.00;;;;;;5013685;28;20242;-83
2021/05/12 01:56:11;;;;;;;6.77;3.67;;;13.20;60.90;;;;;;5015779;28;20261;-84
2021/05/12 01:58:40;;;;;;;6.43;4.00;;;13.20;60.30;;;;;;5000968;28;20200;-80
2021/05/12 02:01:08;;;;;;;10.23;4.30;;;13.20;60.00;;;;;;5018475;28;20233;-80
2021/05/12 02:03:36;;;;;;;6.90;3.77;;;13.30;59.60;;;;;;5020175;28;20207;-84
2021/05/12 02:06:05;;;;;;;5.13;3.50;;;13.20;60.60;;;;;;4999513;28;20219;-84
2021/05/12 02:08:34;;;;;;;6.13;4.10;;;13.00;61.70;;;;;;5007240;28;20205;-83
2021/05/12 02:11:05;;;;;;;5.80;3.70;;;12.80;62.60;;;;;;5011639;28;20213;-82
2021/05/12 02:13:34;;;;;;;6.63;3.87;;;12.50;63.40;;;;;;5023578;28;20216;-82
2021/05/12 02:16:05;;;;;;;5.60;3.63;;;12.40;63.90;;;;;;5026169;28;20179;-83
2021/05/12 02:18:33;;;;;;;5.50;3.60;;;12.40;64.40;;;;;;5009618;28;20209;-80
2021/05/12 02:21:02;;;;;;;6.37;3.60;;;12.20;65.50;;;;;;4997589;28;20467;-87
2021/05/12 02:23:31;;;;;;;4.87;4.00;;;12.10;65.60;;;;;;4995229;28;20250;-84
2021/05/12 02:25:59;;;;;;;4.17;3.70;;;12.10;65.70;;;;;;4999674;28;20645;-82
2021/05/12 02:28:29;;;;;;;5.17;3.80;;;12.20;65.90;;;;;;5001786;28;20195;-80
2021/05/12 02:30:57;;;;;;;5.00;3.77;;;12.30;65.80;;;;;;4995434;28;20261;-81
2021/05/12 02:33:25;;;;;;;6.07;4.10;;;12.40;65.90;;;;;;5004721;28;20908;-82
2021/05/12 02:35:53;;;;;;;5.60;3.83;;;12.30;66.50;;;;;;4995860;28;20203;-81
2021/05/12 02:38:23;;;;;;;5.30;4.40;;;12.20;66.60;;;;;;5001793;28;20200;-82
2021/05/12 02:40:51;;;;;;;4.77;3.83;;;12.10;67.60;;;;;;5003399;28;20196;-79
2021/05/12 02:43:21;;;;;;;5.10;4.07;;;11.90;68.30;;;;;;5017326;28;20201;-79
2021/05/12 02:45:50;;;;;;;7.33;4.00;;;11.80;69.10;;;;;;5022564;28;20712;-80
2021/05/12 02:48:22;;;;;;;5.80;4.27;;;11.70;69.80;;;;;;4999938;28;20244;-81
2021/05/12 02:50:50;;;;;;;6.27;3.87;;;11.60;69.90;;;;;;5017650;28;20204;-84
2021/05/12 02:53:20;;;;;;;7.00;5.60;;;11.70;70.40;;;;;;5007441;28;20203;-83
2021/05/12 02:55:48;;;;;;;6.10;4.13;;;11.60;70.50;;;;;;5007373;28;20233;-87
2021/05/12 02:58:17;;;;;;;6.43;3.90;;;11.80;70.50;;;;;;5003264;28;20207;-83
2021/05/12 03:00:45;;;;;;;7.80;4.10;;;11.70;70.50;;;;;;5010706;28;20731;-85
2021/05/12 03:03:14;;;;;;;6.93;3.93;;;11.60;70.70;;;;;;5000506;28;20228;-81
2021/05/12 03:05:42;;;;;;;6.43;4.10;;;11.80;71.30;;;;;;5005259;28;20622;-83
2021/05/12 03:08:10;;;;;;;5.37;3.30;;;11.70;71.30;;;;;;5005717;28;20286;-84
2021/05/12 03:10:40;;;;;;;7.10;4.03;;;11.70;71.00;;;;;;5018919;28;20211;-82
2021/05/12 03:13:09;;;;;;;5.93;3.80;;;11.80;71.40;;;;;;5009476;28;20218;-82
2021/05/12 03:15:37;;;;;;;5.03;3.87;;;11.90;72.00;;;;;;5005493;28;21523;-84
2021/05/12 03:18:07;;;;;;;6.83;4.37;;;11.90;71.50;;;;;;4999506;28;20857;-84
2021/05/12 03:20:36;;;;;;;5.47;3.80;;;12.00;71.70;;;;;;5004954;28;20688;-81
2021/05/12 03:23:05;;;;;;;5.13;3.20;;;12.20;71.40;;;;;;4999815;28;20203;-81
2021/05/12 03:25:33;;;;;;;4.97;3.87;;;12.30;71.20;;;;;;5006536;28;20206;-83
2021/05/12 03:28:03;;;;;;;5.33;3.60;;;12.20;71.20;;;;;;5006039;28;20195;-83
2021/05/12 03:30:33;;;;;;;4.00;3.00;;;12.40;70.90;;;;;;5009181;28;20207;-82
2021/05/12 03:33:03;;;;;;;4.97;3.40;;;12.70;68.80;;;;;;5007677;28;20250;-83
2021/05/12 03:35:33;;;;;;;6.67;3.60;;;13.00;68.60;;;;;;5008054;28;20218;-82
2021/05/12 03:38:04;;;;;;;8.30;3.60;;;13.30;67.60;;;;;;5017929;28;20195;-81
2021/05/12 03:40:32;;;;;;;6.40;2.93;;;13.40;68.00;;;;;;5028433;28;20487;-82
2021/05/12 03:43:04;;;;;;;5.00;3.60;;;13.40;68.00;;;;;;5006378;28;20700;-79
2021/05/12 03:45:32;;;;;;;5.20;3.43;;;13.40;68.40;;;;;;5016596;28;20203;-83
2021/05/12 03:48:00;;;;;;;7.33;3.90;;;13.60;67.30;;;;;;5017588;28;20696;-82
2021/05/12 03:50:29;;;;;;;6.17;3.30;;;13.70;67.60;;;;;;5003476;28;20207;-82
2021/05/12 03:52:57;;;;;;;6.00;3.90;;;13.80;66.70;;;;;;5011368;28;20198;-83
2021/05/12 03:55:27;;;;;;;5.10;3.13;;;13.90;66.50;;;;;;5009432;28;20238;-83
2021/05/12 03:57:55;;;;;;;7.63;3.40;;;14.10;65.70;;;;;;5016701;28;20252;-81
2021/05/12 04:00:23;;;;;;;7.17;3.20;;;14.30;65.40;;;;;;5007012;28;20211;-81
2021/05/12 04:02:51;;;;;;;5.00;3.10;;;14.40;65.20;;;;;;5004620;28;20229;-84
2021/05/12 04:05:19;;;;;;;7.33;3.60;;;14.50;64.80;;;;;;5008117;28;20199;-83
2021/05/12 04:07:48;;;;;;;4.73;3.40;;;14.50;64.80;;;;;;5007257;28;20270;-81
2021/05/12 04:10:17;;;;;;;4.93;3.30;;;14.60;64.70;;;;;;5010801;28;20214;-82
2021/05/12 04:12:47;;;;;;;4.77;3.10;;;14.60;64.50;;;;;;5017947;28;20210;-81
2021/05/12 04:15:15;;;;;;;4.07;3.40;;;14.70;64.50;;;;;;5014354;28;20243;-82
2021/05/12 04:17:43;;;;;;;6.40;3.57;;;14.80;64.80;;;;;;5018327;28;20195;-81
2021/05/12 04:20:14;;;;;;;4.63;3.10;;;14.80;64.50;;;;;;5006269;28;20199;-83
2021/05/12 04:22:43;;;;;;;4.93;3.50;;;14.90;63.90;;;;;;5014472;28;20244;-82
2021/05/12 04:25:15;;;;;;;5.10;3.43;;;15.10;64.10;;;;;;5008893;28;20238;-80
2021/05/12 04:27:44;;;;;;;4.30;3.07;;;15.20;63.80;;;;;;5019597;28;20214;-82
2021/05/12 04:30:15;;;;;;;4.83;3.00;;;15.30;63.50;;;;;;5016552;28;20204;-80
2021/05/12 04:32:44;;;;;;;3.60;3.03;;;15.30;64.00;;;;;;5023117;28;20202;-82
2021/05/12 04:35:16;;;;;;;7.67;3.30;;;15.40;64.10;;;;;;5021071;28;20306;-82
2021/05/12 04:37:46;;;;;;;7.50;3.63;;;15.40;63.90;;;;;;5023262;28;20207;-83
2021/05/12 04:40:17;;;;;;;3.40;3.10;;;15.50;64.10;;;;;;5026932;28;20206;-83
2021/05/12 04:42:47;;;;;;;7.67;3.13;;;15.60;63.80;;;;;;5025386;28;20221;-81
2021/05/12 04:45:18;;;;;;;7.60;3.50;;;15.70;63.80;;;;;;5015407;28;20214;-83
2021/05/12 04:47:55;;;;;;;4.33;3.37;;;16.00;63.40;;;;;;5008147;28;20607;-82
2021/05/12 04:50:26;;;;;;;7.73;3.53;;;16.10;63.10;;;;;;5012387;28;20206;-82
2021/05/12 04:52:55;;;;;;;8.27;3.53;;;16.20;63.10;;;;;;5016424;28;20274;-83
2021/05/12 04:55:25;;;;;;;8.87;3.50;;;16.30;62.70;;;;;;5002914;28;20219;-84
2021/05/12 04:57:53;;;;;;;7.13;3.70;;;16.40;62.40;;;;;;5020471;28;20586;-83
2021/05/12 05:00:26;;;;;;;5.40;3.43;;;16.40;63.10;;;;;;5015000;28;20196;-84
2021/05/12 05:02:55;;;;;;;7.63;3.43;;;16.60;63.00;;;;;;5012689;28;21846;-85
2021/05/12 05:05:26;;;;;;;5.47;3.03;;;16.70;62.10;;;;;;5012706;28;20222;-84
2021/05/12 05:07:55;;;;;;;6.50;3.20;;;16.80;62.10;;;;;;4988060;28;20219;-82
2021/05/12 05:10:23;;;;;;;11.63;3.13;;;16.90;62.10;;;;;;5012858;28;20218;-81
2021/05/12 05:12:52;;;;;;;8.83;3.30;;;16.90;61.80;;;;;;5017575;28;20212;-81
2021/05/12 05:15:20;;;;;;;6.83;3.17;;;17.00;61.90;;;;;;4997323;28;20231;-81
2021/05/12 05:17:53;;;;;;;8.00;3.13;;;17.10;61.40;;;;;;5021452;28;20207;-83
2021/05/12 05:20:23;;;;;;;6.17;3.10;;;17.20;61.70;;;;;;5018353;28;20218;-82
2021/05/12 05:22:51;;;;;;;9.67;3.50;;;17.30;61.70;;;;;;5020641;28;20203;-83
2021/05/12 05:25:20;;;;;;;6.60;3.17;;;17.40;61.30;;;;;;5016677;28;20203;-80
2021/05/12 05:27:49;;;;;;;6.47;3.20;;;17.50;61.10;;;;;;5024600;28;20209;-82
2021/05/12 05:30:17;;;;;;;16.43;7.53;;;17.50;61.20;;;;;;5016986;28;20210;-81
2021/05/12 05:32:45;;;;;;;9.13;6.97;;;17.70;61.30;;;;;;5020280;28;20226;-82
2021/05/12 05:35:19;;;;;;;8.03;3.63;;;17.80;61.00;;;;;;5014964;28;20229;-83
2021/05/12 05:37:47;;;;;;;10.20;6.73;;;17.90;60.60;;;;;;5013656;28;20224;-83
2021/05/12 05:40:15;;;;;;;9.60;4.70;;;18.00;61.10;;;;;;5022364;28;20313;-82
2021/05/12 05:42:43;;;;;;;7.40;3.77;;;18.20;61.10;;;;;;5020857;28;20230;-81
2021/05/12 05:45:12;;;;;;;8.50;3.40;;;18.30;60.90;;;;;;5014787;28;20210;-81
2021/05/12 05:47:40;;;;;;;5.97;2.93;;;18.40;60.40;;;;;;5002395;28;20662;-82
2021/05/12 05:50:09;;;;;;;7.40;3.10;;;18.50;60.70;;;;;;4997444;28;20212;-85
2021/05/12 05:52:38;;;;;;;4.27;3.10;;;18.70;60.40;;;;;;4997610;28;20222;-82
2021/05/12 05:55:07;;;;;;;7.40;3.10;;;18.80;60.30;;;;;;4997950;28;20219;-84
2021/05/12 05:57:36;;;;;;;6.57;3.77;;;18.90;59.20;;;;;;4982377;28;20211;-83
2021/05/12 06:00:07;;;;;;;7.77;3.30;;;18.90;60.20;;;;;;5016690;28;20776;-82
2021/05/12 06:02:35;;;;;;;5.93;3.20;;;19.00;59.70;;;;;;5001662;28;20200;-82
2021/05/12 06:05:04;;;;;;;5.73;3.37;;;19.20;59.70;;;;;;5012423;28;20203;-83
2021/05/12 06:07:32;;;;;;;5.77;3.37;;;19.30;57.90;;;;;;5001037;28;20672;-84
2021/05/12 06:10:01;;;;;;;5.00;3.00;;;19.40;57.70;;;;;;4990432;28;20395;-81
2021/05/12 06:12:30;;;;;;;6.90;3.20;;;19.40;57.20;;;;;;4988075;28;20204;-81
2021/05/12 06:14:58;;;;;;;6.77;3.20;;;19.50;57.10;;;;;;5000560;28;20231;-81
2021/05/12 06:17:43;;;;;;;4.73;3.00;;;19.60;56.50;;;;;;4992839;28;20704;-82
2021/05/12 06:20:11;;;;;;;4.17;2.90;;;19.70;56.00;;;;;;4980819;28;20218;-81
2021/05/12 06:22:40;;;;;;;4.27;2.57;;;19.80;55.20;;;;;;4977323;28;20313;-82
2021/05/12 06:25:12;;;;;;;5.67;2.83;;;19.80;54.70;;;;;;4980609;28;20209;-83
2021/05/12 06:27:41;;;;;;;6.27;2.93;;;19.90;54.90;;;;;;4980449;28;20449;-82
2021/05/12 06:30:10;;;;;;;6.30;3.20;;;20.00;55.00;;;;;;4981115;28;20256;-82
2021/05/12 06:32:39;;;;;;;6.13;3.03;;;20.10;54.50;;;;;;4979811;28;20262;-82
2021/05/12 06:35:08;;;;;;;6.80;2.93;;;20.30;54.30;;;;;;4984000;28;20227;-84
2021/05/12 06:37:36;;;;;;;6.40;3.23;;;20.50;55.00;;;;;;4974721;28;20205;-83
2021/05/12 06:40:05;;;;;;;4.93;3.07;;;20.60;56.30;;;;;;4976979;28;20215;-86
2021/05/12 06:42:35;;;;;;;6.33;2.70;;;20.90;54.50;;;;;;4977251;28;20203;-83
2021/05/12 06:45:03;;;;;;;8.43;2.37;;;21.00;53.90;;;;;;4988365;28;20202;-84
2021/05/12 06:47:32;;;;;;;5.23;2.80;;;21.10;53.20;;;;;;4977897;28;20235;-85
2021/05/12 06:50:00;;;;;;;7.20;2.87;;;21.10;53.60;;;;;;4973689;28;20223;-82
2021/05/12 06:52:28;;;;;;;6.10;2.87;;;21.20;53.40;;;;;;4977118;28;21503;-82
2021/05/12 06:54:56;;;;;;;7.57;2.53;;;21.30;53.10;;;;;;4967160;28;20211;-84
2021/05/12 06:57:24;;;;;;;5.77;2.47;;;21.50;53.40;;;;;;4973544;28;20620;-83
2021/05/12 06:59:53;;;;;;;3.80;2.30;;;21.50;52.80;;;;;;4985844;28;20567;-82
2021/05/12 07:02:42;;;;;;;5.23;2.40;;;21.70;53.50;;;;;;5001387;28;20209;-83
2021/05/12 07:05:14;;;;;;;5.57;2.33;;;21.90;52.80;;;;;;4986075;28;20207;-83
2021/05/12 07:07:42;;;;;;;2.95;2.28;;;21.90;52.50;;;;;;4989936;28;20213;-80
2021/05/12 07:10:11;;;;;;;2.85;2.33;;;22.00;54.20;;;;;;5002784;28;20199;-82
2021/05/12 07:12:40;;;;;;;5.13;2.35;;;22.30;53.40;;;;;;5000998;28;20199;-81
2021/05/12 07:15:11;;;;;;;3.58;2.28;;;22.50;54.40;;;;;;4981242;28;20298;-84
2021/05/12 07:17:40;;;;;;;6.25;2.47;;;22.60;52.80;;;;;;4972048;28;20207;-84
2021/05/12 07:20:10;;;;;;;6.70;2.42;;;22.70;52.10;;;;;;4976982;28;20316;-85
2021/05/12 07:22:38;;;;;;;3.00;2.05;;;22.70;51.10;;;;;;4975849;28;20304;-84
2021/05/12 07:25:07;;;;;;;5.30;2.50;;;22.70;51.40;;;;;;4972490;28;20692;-82
2021/05/12 07:27:36;;;;;;;8.30;2.20;;;22.60;50.90;;;;;;4977333;28;20203;-83
2021/05/12 07:30:05;;;;;;;4.95;2.40;;;22.80;51.60;;;;;;4974782;28;20226;-82
2021/05/12 07:32:34;;;;;;;4.25;2.38;;;22.90;51.70;;;;;;4976514;28;20204;-85
2021/05/12 07:35:03;;;;;;;4.68;2.20;;;23.00;51.30;;;;;;4955394;28;20319;-82
2021/05/12 07:37:31;;;;;;;2.60;2.40;;;23.10;51.10;;;;;;4965538;28;20459;-85
2021/05/12 07:39:59;;;;;;;6.07;2.08;;;23.10;51.40;;;;;;4974718;28;20208;-84
2021/05/12 07:42:27;;;;;;;3.38;2.10;;;23.20;50.30;;;;;;4974406;28;20204;-85
2021/05/12 07:44:55;;;;;;;6.93;2.13;;;23.10;50.70;;;;;;4968047;28;20370;-83
2021/05/12 07:47:23;;;;;;;4.28;2.03;;;23.20;50.50;;;;;;4975276;28;20230;-84
2021/05/12 07:49:52;;;;;;;3.97;2.58;;;23.20;50.60;;;;;;4981000;28;21631;-85
2021/05/12 07:52:20;;;;;;;5.10;2.42;;;23.30;50.90;;;;;;4981458;28;20203;-84
2021/05/12 07:54:49;;;;;;;6.38;2.28;;;23.40;51.00;;;;;;4975836;28;20307;-84
2021/05/12 07:57:17;;;;;;;7.70;2.42;;;23.50;51.30;;;;;;4974363;28;20243;-83
2021/05/12 07:59:45;;;;;;;6.45;2.40;;;23.70;51.40;;;;;;4971057;28;20204;-83
2021/05/12 08:02:14;;;;;;;7.95;2.30;;;23.80;50.30;;;;;;4973452;28;20412;-82
2021/05/12 08:04:42;;;;;;;6.72;2.65;;;23.70;50.70;;;;;;4977449;28;20620;-84
2021/05/12 08:07:11;;;;;;;6.25;2.65;;;23.80;51.10;;;;;;4977786;28;20792;-84
2021/05/12 08:09:39;;;;;;;3.42;2.10;;;23.90;52.10;;;;;;4973313;28;20215;-83
2021/05/12 08:12:08;;;;;;;5.40;2.25;;;24.10;50.30;;;;;;4958599;28;20445;-83
2021/05/12 08:14:40;;;;;;;7.03;2.75;;;24.10;50.60;;;;;;4983936;28;20195;-84
2021/05/12 08:17:08;;;;;;;4.22;2.35;;;24.20;51.40;;;;;;4997914;28;20227;-83
2021/05/12 08:19:36;;;;;;;4.57;2.30;;;24.30;50.40;;;;;;5004845;28;20302;-84
2021/05/12 08:22:06;;;;;;;6.05;2.55;;;24.30;50.00;;;;;;4999597;28;20273;-85
2021/05/12 08:24:34;;;;;;;3.25;2.10;;;24.20;49.60;;;;;;4996909;28;20207;-84
2021/05/12 08:27:04;;;;;;;4.07;2.08;;;24.10;48.40;;;;;;4991126;28;20234;-85
2021/05/12 08:29:33;;;;;;;3.70;2.72;;;23.90;49.20;;;;;;4955792;28;20285;-84
2021/05/12 08:32:04;;;;;;;3.38;2.30;;;24.00;49.40;;;;;;4988292;28;20674;-85
2021/05/12 08:34:33;;;;;;;4.70;2.33;;;24.10;49.40;;;;;;4985932;28;20458;-86
2021/05/12 08:37:01;;;;;;;6.75;2.30;;;24.10;49.30;;;;;;4979078;28;20483;-85
2021/05/12 08:39:29;;;;;;;4.03;2.60;;;24.30;50.20;;;;;;4978476;28;20207;-85
2021/05/12 08:41:59;;;;;;;5.85;2.72;;;24.40;48.40;;;;;;4975436;28;20364;-82
2021/05/12 08:44:28;;;;;;;4.47;2.08;;;24.40;47.90;;;;;;4972647;28;20217;-85
2021/05/12 08:46:57;;;;;;;3.70;2.30;;;24.40;48.10;;;;;;4978761;28;20208;-81
2021/05/12 08:49:28;;;;;;;3.72;2.63;;;24.50;47.70;;;;;;4981808;28;20242;-84
2021/05/12 08:51:56;;;;;;;3.25;2.42;;;24.50;47.60;;;;;;4995863;28;20475;-82
2021/05/12 08:54:24;;;;;;;4.20;2.60;;;24.50;47.70;;;;;;4991401;28;20298;-80
2021/05/12 08:56:53;;;;;;;4.25;2.70;;;24.60;48.80;;;;;;4997815;28;21457;-83
2021/05/12 08:59:22;;;;;;;5.18;2.58;;;24.70;48.30;;;;;;4983544;28;20655;-82
2021/05/12 09:01:50;;;;;;;3.50;2.63;;;24.90;47.70;;;;;;4989188;28;20203;-80
2021/05/12 09:04:19;;;;;;;4.13;2.97;;;25.00;48.10;;;;;;4983613;28;20622;-83
2021/05/12 09:06:47;;;;;;;6.38;2.83;;;25.30;48.10;;;;;;4991963;28;20213;-82
2021/05/12 09:09:16;;;;;;;3.13;2.53;;;25.30;47.70;;;;;;4994846;28;20214;-82
2021/05/12 09:11:44;;;;;;;5.63;2.53;;;25.40;48.00;;;;;;4989360;28;20204;-84
2021/05/12 09:14:33;;;;;;;3.60;2.30;;;25.50;48.30;;;;;;4996173;28;20709;-84
2021/05/12 09:17:01;;;;;;;4.57;1.90;;;25.50;47.90;;;;;;4997365;28;20441;-84
2021/05/12 09:19:30;;;;;;;2.95;1.95;;;25.40;47.30;;;;;;4989118;28;20215;-82
2021/05/12 09:22:00;;;;;;;3.03;2.20;;;25.40;46.30;;;;;;4992363;28;20437;-85
2021/05/12 09:24:32;;;;;;;2.90;1.98;;;25.30;46.80;;;;;;4983202;28;20641;-81
2021/05/12 09:27:02;;;;;;;4.18;1.83;;;25.40;46.70;;;;;;4989850;28;21543;-81
2021/05/12 09:29:32;;;;;;;5.28;2.10;;;25.40;46.10;;;;;;4992310;28;20556;-86
2021/05/12 09:32:07;;;;;;;5.28;2.17;;;25.40;46.50;;;;;;4983399;28;20615;-84
2021/05/12 09:34:57;;;;;;;7.28;1.63;;;25.50;46.60;;;;;;4977966;28;20521;-84
2021/05/12 09:37:27;;;;;;;9.27;2.15;;;25.50;46.80;;;;;;4970044;28;20239;-84
2021/05/12 09:39:56;;;;;;;4.80;2.38;;;25.50;46.00;;;;;;4976563;28;20200;-83
2021/05/12 09:42:25;;;;;;;4.88;2.00;;;25.40;46.40;;;;;;4969272;28;20705;-85
2021/05/12 09:45:15;;;;;;;2.47;1.77;;;25.40;47.00;;;;;;4971537;28;20342;-83
2021/05/12 09:47:44;;;;;;;3.58;1.90;;;25.40;47.20;;;;;;4970298;28;20595;-82
2021/05/12 09:50:15;;;;;;;5.70;2.00;;;25.40;46.90;;;;;;4974015;28;20210;-85
2021/05/12 09:52:43;;;;;;;3.92;2.50;;;25.30;47.30;;;;;;4975749;28;20563;-82
2021/05/12 09:55:13;;;;;;;4.93;2.00;;;25.30;47.10;;;;;;4966461;28;20684;-81
2021/05/12 09:58:00;;;;;;;3.65;1.80;;;25.30;46.70;;;;;;4965292;28;20665;-82
2021/05/12 10:00:31;;;;;;;3.53;2.05;;;25.20;46.40;;;;;;4966553;28;20229;-82
2021/05/12 10:03:00;;;;;;;3.05;1.95;;;25.10;47.00;;;;;;4966860;28;20235;-82
2021/05/12 10:05:48;;;;;;;2.55;1.60;;;25.10;47.30;;;;;;4947032;28;20871;-86
2021/05/12 10:08:21;;;;;;;4.40;1.98;;;25.10;47.50;;;;;;4973741;28;20212;-84
2021/05/12 10:10:54;;;;;;;3.10;2.00;;;25.10;48.10;;;;;;4979278;28;20207;-85
2021/05/12 10:13:23;;;;;;;2.35;2.08;;;25.20;47.60;;;;;;4999426;28;20211;-81
2021/05/12 10:15:52;;;;;;;6.05;2.40;;;25.10;47.90;;;;;;4995029;28;20274;-84
2021/05/12 10:18:21;;;;;;;3.50;1.98;;;25.30;48.40;;;;;;5000087;28;20214;-85
2021/05/12 10:20:56;;;;;;;6.82;2.17;;;25.30;47.00;;;;;;4974310;28;20384;-81
2021/05/12 10:23:25;;;;;;;2.50;1.80;;;25.20;45.90;;;;;;4980984;28;20265;-81
2021/05/12 10:25:54;;;;;;;8.13;2.10;;;25.20;45.60;;;;;;4979851;28;20603;-85
2021/05/12 10:28:23;;;;;;;5.68;2.30;;;25.30;45.90;;;;;;4965724;28;20222;-82
2021/05/12 10:30:56;;;;;;;6.65;2.10;;;25.00;45.60;;;;;;4991899;28;20288;-83
2021/05/12 10:33:45;;;;;;;5.72;2.17;;;25.10;47.10;;;;;;4991131;28;20202;-85
2021/05/12 10:36:18;;;;;;;3.55;1.83;;;25.20;45.80;;;;;;4987356;28;20200;-82
2021/05/12 10:38:47;;;;;;;5.43;1.92;;;25.30;45.30;;;;;;4984074;28;20204;-82
2021/05/12 10:41:37;;;;;;;4.40;2.05;;;25.30;46.40;;;;;;4985220;28;20239;-83
2021/05/12 10:44:12;;;;;;;4.05;1.95;;;25.20;45.40;;;;;;4985125;28;20766;-84
2021/05/12 10:47:04;;;;;;;5.40;2.08;;;25.30;47.00;;;;;;4989004;28;20229;-83
2021/05/12 10:49:33;;;;;;;7.07;1.90;;;25.50;45.90;;;;;;4970790;28;20293;-85
2021/05/12 10:52:07;;;;;;;4.20;1.65;;;25.40;46.00;;;;;;4976460;28;20207;-83
2021/05/12 10:54:40;;;;;;;4.65;2.22;;;25.40;45.20;;;;;;4973859;28;20417;-85
2021/05/12 10:57:10;;;;;;;6.78;2.40;;;25.30;45.50;;;;;;4974314;28;20255;-84
2021/05/12 10:59:51;;;;;;;5.68;2.08;;;25.10;45.30;;;;;;4977474;28;20196;-84
2021/05/12 11:02:20;;;;;;;6.97;2.10;;;25.20;45.60;;;;;;4975880;28;20824;-84
2021/05/12 11:05:00;;;;;;;7.32;2.35;;;25.30;45.90;;;;;;4971807;28;20204;-85
2021/05/12 11:07:32;;;;;;;6.78;2.10;;;25.30;45.70;;;;;;4985226;28;20199;-84
2021/05/12 11:10:00;;;;;;;6.53;2.00;;;25.20;45.30;;;;;;4986536;28;20649;-83
2021/05/12 11:12:36;;;;;;;2.72;1.77;;;25.30;45.30;;;;;;4982861;28;20290;-82
2021/05/12 11:15:07;;;;;;;3.85;1.90;;;25.30;45.70;;;;;;4983082;28;20210;-84
2021/05/12 11:17:49;;;;;;;3.83;2.20;;;25.40;46.00;;;;;;4989388;28;20226;-84
2021/05/12 11:20:21;;;;;;;3.88;2.03;;;25.60;45.80;;;;;;4987012;28;20234;-83
2021/05/12 11:22:50;;;;;;;4.82;1.83;;;25.60;45.20;;;;;;4984889;28;20558;-85
2021/05/12 11:25:24;;;;;;;6.43;2.13;;;25.60;45.40;;;;;;4991384;28;20249;-84
2021/05/12 11:34:06;;;;;;;5.93;2.55;;;25.40;45.20;;;;;;4993102;28;20555;-86
2021/05/12 11:36:37;;;;;;;5.53;2.25;;;25.40;46.10;;;;;;4991139;28;20543;-87
2021/05/12 11:39:06;;;;;;;4.32;2.13;;;25.50;45.60;;;;;;4984465;28;20638;-85
2021/05/12 11:41:34;;;;;;;3.35;2.00;;;25.40;44.80;;;;;;4988026;28;20233;-84
2021/05/12 11:44:03;;;;;;;6.20;2.28;;;25.40;45.20;;;;;;4990086;28;20211;-83
2021/05/12 11:46:33;;;;;;;5.65;2.47;;;25.50;45.40;;;;;;4989255;28;20223;-83
2021/05/12 11:49:06;;;;;;;5.13;2.00;;;25.50;44.80;;;;;;4993704;28;20226;-85
2021/05/12 11:51:37;;;;;;;3.92;2.50;;;25.50;44.30;;;;;;4987822;28;20230;-84
2021/05/12 11:54:13;;;;;;;3.47;2.42;;;25.70;45.10;;;;;;4990635;28;20346;-85
2021/05/12 11:56:43;;;;;;;5.18;1.85;;;25.80;45.50;;;;;;4985079;28;20645;-84
2021/05/12 11:59:15;;;;;;;7.80;2.55;;;25.80;44.90;;;;;;4976833;28;20306;-85
2021/05/12 12:01:44;;;;;;;4.43;2.45;;;25.90;45.00;;;;;;4991832;28;20275;-83
2021/05/12 12:04:21;;;;;;;8.75;2.42;;;25.90;45.00;;;;;;4995733;28;21207;-85
2021/05/12 12:06:50;;;;;;;6.10;2.30;;;25.90;44.00;;;;;;5003939;28;20242;-87
2021/05/12 12:09:19;;;;;;;4.63;2.40;;;25.80;45.00;;;;;;4998337;28;20184;-82
2021/05/12 12:11:48;;;;;;;8.32;3.13;;;26.00;45.80;;;;;;4996057;28;20203;-83
2021/05/12 12:14:18;;;;;;;5.05;2.63;;;25.90;43.70;;;;;;4998249;28;20191;-83
2021/05/12 12:16:46;;;;;;;7.60;2.80;;;25.80;43.90;;;;;;4991731;28;20204;-84
2021/05/12 12:19:18;;;;;;;4.15;2.40;;;25.80;43.40;;;;;;4990932;28;20748;-86
2021/05/12 12:21:48;;;;;;;6.38;2.80;;;25.60;43.60;;;;;;4997858;28;20229;-84
2021/05/12 12:24:19;;;;;;;6.47;2.53;;;25.70;44.50;;;;;;4995574;28;20194;-84
2021/05/12 12:26:52;;;;;;;3.25;2.45;;;25.80;44.60;;;;;;4992526;28;20504;-84
2021/05/12 12:29:22;;;;;;;5.65;2.25;;;26.10;44.50;;;;;;4989651;28;20405;-84
2021/05/12 12:31:52;;;;;;;6.35;2.30;;;26.10;44.90;;;;;;5002340;28;20207;-83
2021/05/12 12:34:23;;;;;;;4.32;2.60;;;26.50;44.40;;;;;;4994694;28;20659;-84
2021/05/12 12:36:58;;;;;;;8.27;2.72;;;26.60;43.90;;;;;;4992160;28;20214;-86
2021/05/12 12:39:52;;;;;;;7.70;2.45;;;26.40;43.10;;;;;;4986854;28;20310;-84
2021/05/12 12:42:27;;;;;;;4.72;2.70;;;26.50;43.70;;;;;;4992655;28;20526;-85
2021/05/12 12:44:56;;;;;;;5.47;2.80;;;26.40;44.30;;;;;;5005297;28;20195;-83
2021/05/12 12:47:28;;;;;;;6.18;2.60;;;26.50;44.00;;;;;;4999949;28;20199;-84
2021/05/12 12:49:59;;;;;;;8.45;2.80;;;26.60;44.30;;;;;;5015658;28;20234;-85
2021/05/12 12:52:35;;;;;;;4.60;2.60;;;26.80;44.30;;;;;;5003085;28;20293;-84
2021/05/12 12:55:09;;;;;;;4.10;2.38;;;26.80;43.20;;;;;;4994959;28;20272;-82
2021/05/12 12:57:40;;;;;;;3.70;2.45;;;26.70;43.50;;;;;;4969406;28;20443;-84
2021/05/12 13:00:23;;;;;;;5.00;2.80;;;26.70;43.40;;;;;;4982948;28;20231;-86
2021/05/12 13:03:05;;;;;;;9.50;3.00;;;26.50;42.40;;;;;;4977272;28;20200;-86
2021/05/12 13:05:41;;;;;;;5.45;3.08;;;26.30;42.40;;;;;;4978263;28;20224;-84
2021/05/12 13:08:31;;;;;;;5.85;2.50;;;26.30;43.00;;;;;;4977335;28;20258;-83